Flight Track Log - Related Links

Times and Time Zones

All times are in EDT time to prevent confusion due to time zone crossing. See the N770NC flight status page for this flight to view local times or setup timezone preferences in your user account.

Time Position Orientation Groundspeed Altitude Reporting Facility
EDT Latitude Longitude Course Direction KTS MPH feet Rate Location/Type
Sat 01:30:23 AM 41.8753 -87.8700 139° Southeast 287 330 11,600  Level Chicago Center
Sat 01:31:23 AM 41.7933 -87.8411 165° South 301 346 13,800 1,500 Climbing Chicago Center
Sat 01:32:23 AM 41.7053 -87.7975 160° South 351 404 14,600 1,289 Climbing Chicago Center
Sat 01:33:24 AM 41.6158 -87.7192 147° Southeast 381 438 16,400 1,736 Climbing Chicago Center
Sat 01:34:24 AM 41.5250 -87.6358 146° Southeast 391 450 18,100 1,800 Climbing Chicago Center
Sat 01:35:00 AM 41.5086 -87.3576 139° Southeast  Level Estimated
Sat 01:35:24 AM 41.4336 -87.5483 144° Southeast 400 460 20,000  Level Chicago Center
Sat 01:36:24 AM 41.3397 -87.4592 144° Southeast 411 473 21,700 1,350 Climbing Chicago Center
Sat 01:37:24 AM 41.2433 -87.3647 144° Southeast 427 491 22,700 645 Climbing Chicago Center
Sat 01:38:25 AM 41.1433 -87.2567 141° Southeast 457 526 23,000 149 Climbing Chicago Center
Sat 01:39:25 AM 41.0447 -87.1481 140° Southeast 463 533 23,000  Level Chicago Center
Sat 01:40:25 AM 40.9461 -87.0378 140° Southeast 464 534 23,000  Level Chicago Center
Sat 01:41:25 AM 40.8481 -86.9275 140° Southeast 465 535 23,000  Level Chicago Center
Sat 01:42:26 AM 40.7478 -86.8186 141° Southeast 468 539 23,000  Level Chicago Center
Sat 01:43:26 AM 40.6428 -86.7028 140° Southeast 465 535 23,000  Level Chicago Center
Sat 01:44:26 AM 40.5431 -86.5925 140° Southeast 468 539 23,000  Level Chicago Center
Sat 01:45:26 AM 40.4433 -86.4836 140° Southeast 467 537 23,000  Level Chicago Center
Sat 01:46:27 AM 40.3439 -86.3739 140° Southeast 468 539 23,000  Level Chicago Center
Sat 01:47:27 AM 40.2464 -86.2631 139° Southeast 465 535 23,000  Level Chicago Center
Sat 01:48:27 AM 40.1414 -86.1650 144° Southeast 470 541 23,000  Level Chicago Center
Sat 01:49:27 AM 40.0239 -86.0989 157° South 462 532 23,000 -555 Level Chicago Center
Sat 01:50:26 AM 39.9072 -86.0319 156° South 459 528 21,900 -1,311 Descending Indianapolis Center
Sat 01:51:26 AM 39.8075 -85.9331 143° Southeast 447 514 20,400 -2,628 Descending Indianapolis Center
Sat 01:52:27 AM 39.7286 -85.8200 132° Southeast 421 484 16,600 -2,579 Descending Indianapolis Center
Sat 01:53:27 AM 39.6583 -85.6972 127° Southeast 423 487 15,200 -1,650 Descending Indianapolis Center
Sat 01:54:27 AM 39.5953 -85.5764 124° Southeast 409 471 13,300 -1,650 Descending Indianapolis Center
Sat 01:55:27 AM 39.5333 -85.4578 124° Southeast 401 461 11,900 -992 Descending Indianapolis Center
Sat 01:56:28 AM 39.4753 -85.3581 127° Southeast 356 410 11,300 -942 Descending Indianapolis Center
Sat 01:57:28 AM 39.4039 -85.3000 148° Southeast 309 356 10,000 -1,600 Descending Indianapolis Center
Sat 01:58:28 AM 39.3358 -85.2469 149° Southeast 290 334 8,100 -1,650 Descending Indianapolis Center
Sat 01:59:28 AM 39.2672 -85.1975 151° Southeast 284 327 6,700 -1,150 Descending Indianapolis Center
Sat 02:00:28 AM 39.1961 -85.1506 153° Southeast 286 329 5,800 -843 Descending Indianapolis Center
Sat 02:01:29 AM 39.1267 -85.1053 153° Southeast 282 325 5,000 -347 Descending Indianapolis Center
Sat 02:02:29 AM 39.0681 -85.0506 144° Southeast 285 328 5,100 -50 Climbing Indianapolis Center
Sat 02:03:29 AM 39.0444 -84.9631 109° East 270 311 4,900 -700 Descending Indianapolis Center
Sat 02:04:29 AM 39.0472 -84.8811 87° East 241 277 3,700 -700 Descending Indianapolis Center
Sat 02:05:29 AM 39.0494 -84.8003 88° East 239 275 3,500 -902 Descending Indianapolis Center
Sat 02:06:42 AM 39.0500 -84.7500 89° East 118 136 1,700 -1,083 Descending Cincinnati TRACON
Sat 02:07:42 AM 39.0500 -84.7000 90° East 112 129 1,100 -600 Descending Cincinnati TRACON
Sat 02:09:00 AM 39.0333 -84.6667 90° East  Level FlightAware Approximate

Login

Don't have an account? Register now (free) for customized features, flight alerts, and more!